GTI1 -KSAN
Flight info
| Callsign | GTI1 |
|---|---|
| Flight time | N/A |
| Altitude | VFR |
| Route | |
| Aircraft | B744/H-DOV/C |
Departure
| Time | N/A |
|---|---|
| Airport | - |
Arrival
| Time | 2026-05-04 07:15 |
|---|---|
| Airport | San Diego International Airport (KSAN) |
| Time | Latitude | Longitude | Altitude | Speed | Heading |
|---|---|---|---|---|---|
| 2026-05-04 07:15 | 32.73101 | -117.19123 | 36 ft | 0 kts | 23° |
| 2026-05-04 07:15 | 32.73115 | -117.19116 | 36 ft | 15 kts | 22° |
| 2026-05-04 07:16 | 32.73257 | -117.19045 | 35 ft | 9 kts | 34° |
| 2026-05-04 07:16 | 32.73266 | -117.19023 | 36 ft | 4 kts | 100° |
| 2026-05-04 07:16 | 32.73245 | -117.18936 | 36 ft | 17 kts | 106° |
| 2026-05-04 07:16 | 32.73197 | -117.18739 | 32 ft | 33 kts | 106° |
| 2026-05-04 07:17 | 32.73116 | -117.18399 | 32 ft | 51 kts | 107° |
| 2026-05-04 07:17 | 32.73004 | -117.17938 | 28 ft | 56 kts | 106° |
| 2026-05-04 07:17 | 32.72958 | -117.17744 | 27 ft | 10 kts | 98° |
| 2026-05-04 07:17 | 32.72956 | -117.17695 | 28 ft | 9 kts | 91° |
| 2026-05-04 07:18 | 32.72990 | -117.17628 | 30 ft | 8 kts | 18° |
| 2026-05-04 07:18 | 32.73019 | -117.17621 | 30 ft | 1 kts | 349° |
| 2026-05-04 07:18 | 32.73030 | -117.17630 | 30 ft | 2 kts | 298° |
| 2026-05-04 07:18 | 32.73091 | -117.17873 | 29 ft | 78 kts | 287° |
| 2026-05-04 07:19 | 32.73330 | -117.18858 | 45 ft | 164 kts | 286° |
| 2026-05-04 07:19 | 32.73654 | -117.20173 | 268 ft | 162 kts | 286° |
| 2026-05-04 07:19 | 32.74066 | -117.21380 | 590 ft | 164 kts | 308° |
| 2026-05-04 07:19 | 32.75039 | -117.22018 | 1323 ft | 164 kts | 355° |
| 2026-05-04 07:20 | 32.76215 | -117.21585 | 1573 ft | 198 kts | 36° |
| 2026-05-04 07:20 | 32.76910 | -117.20195 | 1918 ft | 204 kts | 80° |
| 2026-05-04 07:20 | 32.76937 | -117.18485 | 1827 ft | 207 kts | 95° |
| 2026-05-04 07:20 | 32.76761 | -117.16804 | 1737 ft | 203 kts | 101° |
| 2026-05-04 07:22 | 32.73156 | -117.14443 | 992 ft | 152 kts | 218° |
| 2026-05-04 07:22 | 32.72565 | -117.15411 | 660 ft | 142 kts | 262° |
| 2026-05-04 07:23 | 32.72761 | -117.16551 | 344 ft | 145 kts | 289° |
| 2026-05-04 07:23 | 32.73048 | -117.17698 | 86 ft | 141 kts | 286° |
| 2026-05-04 07:23 | 32.73307 | -117.18740 | 28 ft | 128 kts | 287° |
| 2026-05-04 07:23 | 32.73623 | -117.19952 | 463 ft | 169 kts | 287° |
| 2026-05-04 07:24 | 32.74230 | -117.21223 | 1079 ft | 202 kts | 328° |
| 2026-05-04 07:24 | 32.75537 | -117.20869 | 644 ft | 221 kts | 54° |
| 2026-05-04 07:24 | 32.75751 | -117.19170 | 909 ft | 191 kts | 99° |
| 2026-05-04 07:24 | 32.75449 | -117.17746 | 824 ft | 168 kts | 122° |
| 2026-05-04 07:25 | 32.74577 | -117.17036 | 719 ft | 156 kts | 176° |
| 2026-05-04 07:26 | 32.76569 | -117.20053 | 1573 ft | 234 kts | 111° |
| 2026-05-04 07:27 | 32.76470 | -117.19696 | 1546 ft | 247 kts | 110° |
| 2026-05-04 07:27 | 32.76436 | -117.19577 | 1548 ft | 249 kts | 110° |
| 2026-05-04 07:27 | 32.75835 | -117.17642 | 1356 ft | 240 kts | 112° |
| 2026-05-04 07:27 | 32.75177 | -117.15942 | 1057 ft | 213 kts | 133° |
| 2026-05-04 07:28 | 32.73941 | -117.15443 | 961 ft | 185 kts | 200° |
| 2026-05-04 07:28 | 32.72870 | -117.16114 | 595 ft | 167 kts | 236° |
| 2026-05-04 07:28 | 32.72908 | -117.17396 | 196 ft | 169 kts | 295° |
| 2026-05-04 07:28 | 32.73279 | -117.18630 | 113 ft | 161 kts | 288° |
| 2026-05-04 07:29 | 32.73960 | -117.19611 | 586 ft | 161 kts | 357° |
| 2026-05-04 07:29 | 32.74680 | -117.18602 | 421 ft | 194 kts | 103° |
| 2026-05-04 07:29 | 32.74063 | -117.17459 | 688 ft | 159 kts | 165° |
| 2026-05-04 07:29 | 32.73354 | -117.17552 | 335 ft | 164 kts | 224° |
| 2026-05-04 07:30 | 32.73333 | -117.18930 | 39 ft | 175 kts | 290° |
| 2026-05-04 07:30 | 32.73651 | -117.20185 | 121 ft | 157 kts | 288° |
| 2026-05-04 07:30 | 32.74067 | -117.21256 | 665 ft | 179 kts | 317° |
| 2026-05-04 07:30 | 32.75163 | -117.20841 | 844 ft | 199 kts | 78° |
| 2026-05-04 07:31 | 32.74354 | -117.19010 | 632 ft | 191 kts | 111° |
| 2026-05-04 07:31 | 32.74084 | -117.18030 | 644 ft | 183 kts | 104° |
| 2026-05-04 07:33 | 32.74226 | -117.16545 | 944 ft | 211 kts | 162° |
| 2026-05-04 07:33 | 32.73045 | -117.17048 | 732 ft | 181 kts | 240° |
| 2026-05-04 07:33 | 32.73265 | -117.18613 | 84 ft | 214 kts | 291° |
| 2026-05-04 07:33 | 32.73662 | -117.20213 | 94 ft | 173 kts | 292° |
| 2026-05-04 07:34 | 32.74221 | -117.21308 | 729 ft | 158 kts | 328° |
| 2026-05-04 07:34 | 32.75337 | -117.21616 | 831 ft | 153 kts | 324° |
| 2026-05-04 07:34 | 32.75519 | -117.22795 | 652 ft | 189 kts | 224° |
| 2026-05-04 07:34 | 32.74354 | -117.22290 | 421 ft | 216 kts | 111° |
| 2026-05-04 07:35 | 32.73798 | -117.20709 | 163 ft | 209 kts | 111° |
| 2026-05-04 07:35 | 32.73419 | -117.19174 | 35 ft | 174 kts | 110° |
| 2026-05-04 07:35 | 32.73108 | -117.18029 | 28 ft | 0 kts | 105° |
| 2026-05-04 07:35 | 32.73054 | -117.17716 | 30 ft | 10 kts | 101° |
| 2026-05-04 07:36 | 32.73078 | -117.17654 | 34 ft | 14 kts | 23° |
| 2026-05-04 07:36 | 32.73179 | -117.17745 | 35 ft | 34 kts | 285° |
| 2026-05-04 07:38 | 32.73390 | -117.17930 | 38 ft | 0 kts | 15° |